Hanoverton, Ohio
Current Conditions -  °F | °C
As of 6:51 AM on Sunday 25 Jan 2015 (Local Time) from KCAK Reporting Station
Haze Haze  
Wind Chill: 29°   Ceiling: 1200
Heat Index: 34°   Visibility: 2mi
Dew Point: 31°   Wind: 6mph
Humidity: 89%   Direction: 220°SW
Pressure: 29.74"   Gusts: NA
Location:  40.75°N, 80.94°W
Report Text: KCAK 251151Z 22005KT 2SM BR OVC012 01/M01 A2974 RMK AO2 SFC VIS 3 SLP081 4/002 60000 70002 T00111006 10011 20006 53006
Loading
Personal Weather Stations






























Interactive Weather Map New forecast layout! Learn more

10-Day Weather Forecast

Advertisements
Track Severe Weather on mobile